Decoded Metar for YPLM (LEARMONTH in AUSTRALIA) (IATA:LEA) | Meteo·Mobile Aviation Weather
aviador You're here:

YPLM Decoded Metar

LEARMONTH in AUSTRALIA
Report Time2018-11-21 18:00:00
UTC Time2018-11-21 18:40:15
Flight Rules mvfr MVFR
Wind230° at 09 kt
W.Decomp.*RWY 18: 5.9 kt HW 6.8 kt RCW
W.Rank230° ranks 3
Current wind is below 230° avg. (9.0)
Visibility9999 m
Phenomena:N/A
Clouds:Broken 023 Hf
Expected CloudBase > 2,000 ft AGL from Temp-Dew spread
Ceiling2,300 ft
Temp21°C (ISA +6)
Dew Point16°C (73% RH)
AAT19.7°C
QNH1007 hPa
Density Alt1,171 ft
Elevation20 ft
Report Wrong Elevation
Raw Report
METAR YPLM 211800Z AUTO 23009KT 9999 // BKN023 21/16 Q1007=

Extra information for YPLM:More info

Metar Taf Metar & Taf Last 4 Metars F.Rules Stats Wind Profile Meteogram Temp Stats Airport Information Weather charts Add Link Nearby VenuesMetar ALERT Operation Metar Decoded Social comments